sensor_id;sensor_type;location;lat;lon;timestamp;P1;durP1;ratioP1;P2;durP2;ratioP2
31406;SDS011;18043;52.438;4.836;2022-08-03T00:00:38;12.68;;;2.90;;
31406;SDS011;18043;52.438;4.836;2022-08-03T00:03:11;12.63;;;2.90;;
31406;SDS011;18043;52.438;4.836;2022-08-03T00:05:43;9.43;;;2.70;;
31406;SDS011;18043;52.438;4.836;2022-08-03T00:08:15;12.88;;;3.53;;
31406;SDS011;18043;52.438;4.836;2022-08-03T00:10:48;13.10;;;2.80;;
31406;SDS011;18043;52.438;4.836;2022-08-03T00:13:21;12.63;;;3.17;;
31406;SDS011;18043;52.438;4.836;2022-08-03T00:15:54;14.48;;;3.80;;
31406;SDS011;18043;52.438;4.836;2022-08-03T00:18:26;10.40;;;3.05;;
31406;SDS011;18043;52.438;4.836;2022-08-03T00:20:59;18.73;;;2.63;;
31406;SDS011;18043;52.438;4.836;2022-08-03T00:23:31;12.32;;;3.45;;
31406;SDS011;18043;52.438;4.836;2022-08-03T00:26:03;15.65;;;3.28;;
31406;SDS011;18043;52.438;4.836;2022-08-03T00:28:37;13.50;;;2.92;;
31406;SDS011;18043;52.438;4.836;2022-08-03T00:31:11;13.20;;;2.75;;
31406;SDS011;18043;52.438;4.836;2022-08-03T00:33:43;6.68;;;2.17;;
31406;SDS011;18043;52.438;4.836;2022-08-03T00:36:16;12.65;;;3.63;;
31406;SDS011;18043;52.438;4.836;2022-08-03T00:38:48;12.40;;;2.92;;
31406;SDS011;18043;52.438;4.836;2022-08-03T00:41:20;12.85;;;2.85;;
31406;SDS011;18043;52.438;4.836;2022-08-03T00:43:54;12.30;;;2.88;;
31406;SDS011;18043;52.438;4.836;2022-08-03T00:46:26;11.68;;;3.28;;
31406;SDS011;18043;52.438;4.836;2022-08-03T00:48:59;9.15;;;2.95;;
31406;SDS011;18043;52.438;4.836;2022-08-03T00:51:32;14.88;;;2.55;;
31406;SDS011;18043;52.438;4.836;2022-08-03T00:54:04;12.02;;;3.35;;
31406;SDS011;18043;52.438;4.836;2022-08-03T00:56:37;15.60;;;3.28;;
31406;SDS011;18043;52.438;4.836;2022-08-03T00:59:11;8.93;;;3.00;;
31406;SDS011;18043;52.438;4.836;2022-08-03T01:01:44;11.73;;;2.92;;
31406;SDS011;18043;52.438;4.836;2022-08-03T01:04:16;13.77;;;3.20;;
31406;SDS011;18043;52.438;4.836;2022-08-03T01:06:49;14.77;;;3.70;;
31406;SDS011;18043;52.438;4.836;2022-08-03T01:09:29;17.08;;;3.80;;
31406;SDS011;18043;52.438;4.836;2022-08-03T01:12:15;17.17;;;3.33;;
31406;SDS011;18043;52.438;4.836;2022-08-03T01:14:57;10.35;;;3.63;;
31406;SDS011;18043;52.438;4.836;2022-08-03T01:17:36;12.32;;;3.00;;
31406;SDS011;18043;52.438;4.836;2022-08-03T01:20:16;14.37;;;3.53;;
31406;SDS011;18043;52.438;4.836;2022-08-03T01:22:56;14.50;;;3.83;;
31406;SDS011;18043;52.438;4.836;2022-08-03T01:25:54;14.32;;;3.58;;
31406;SDS011;18043;52.438;4.836;2022-08-03T01:28:55;8.85;;;4.15;;
31406;SDS011;18043;52.438;4.836;2022-08-03T01:31:42;15.57;;;3.78;;
31406;SDS011;18043;52.438;4.836;2022-08-03T01:34:18;14.75;;;3.40;;
31406;SDS011;18043;52.438;4.836;2022-08-03T01:36:52;12.50;;;2.95;;
31406;SDS011;18043;52.438;4.836;2022-08-03T01:39:28;9.88;;;3.20;;
31406;SDS011;18043;52.438;4.836;2022-08-03T01:42:03;13.98;;;3.55;;
31406;SDS011;18043;52.438;4.836;2022-08-03T01:44:39;12.85;;;3.55;;
31406;SDS011;18043;52.438;4.836;2022-08-03T01:47:15;12.73;;;3.60;;
31406;SDS011;18043;52.438;4.836;2022-08-03T01:49:50;12.88;;;3.35;;
31406;SDS011;18043;52.438;4.836;2022-08-03T01:52:23;14.52;;;3.13;;
31406;SDS011;18043;52.438;4.836;2022-08-03T01:54:57;11.77;;;3.95;;
31406;SDS011;18043;52.438;4.836;2022-08-03T01:57:31;13.13;;;3.53;;
31406;SDS011;18043;52.438;4.836;2022-08-03T02:00:05;18.48;;;3.53;;
31406;SDS011;18043;52.438;4.836;2022-08-03T02:02:41;14.35;;;3.33;;
31406;SDS011;18043;52.438;4.836;2022-08-03T02:05:16;15.80;;;3.67;;
31406;SDS011;18043;52.438;4.836;2022-08-03T02:07:50;16.48;;;4.30;;
31406;SDS011;18043;52.438;4.836;2022-08-03T02:10:24;17.73;;;3.85;;
31406;SDS011;18043;52.438;4.836;2022-08-03T02:12:57;17.73;;;3.20;;
31406;SDS011;18043;52.438;4.836;2022-08-03T02:15:34;13.90;;;3.70;;
31406;SDS011;18043;52.438;4.836;2022-08-03T02:18:08;18.58;;;4.38;;
31406;SDS011;18043;52.438;4.836;2022-08-03T02:20:42;14.82;;;3.65;;
31406;SDS011;18043;52.438;4.836;2022-08-03T02:23:16;17.58;;;4.43;;
31406;SDS011;18043;52.438;4.836;2022-08-03T02:25:49;19.05;;;4.47;;
31406;SDS011;18043;52.438;4.836;2022-08-03T02:28:30;15.88;;;3.58;;
31406;SDS011;18043;52.438;4.836;2022-08-03T02:31:06;18.70;;;4.05;;
31406;SDS011;18043;52.438;4.836;2022-08-03T02:33:47;16.30;;;3.10;;
31406;SDS011;18043;52.438;4.836;2022-08-03T02:36:23;18.02;;;3.95;;
31406;SDS011;18043;52.438;4.836;2022-08-03T02:38:58;25.85;;;4.03;;
31406;SDS011;18043;52.438;4.836;2022-08-03T02:41:34;10.83;;;3.73;;
31406;SDS011;18043;52.438;4.836;2022-08-03T02:44:22;16.55;;;4.35;;
31406;SDS011;18043;52.438;4.836;2022-08-03T02:46:57;19.75;;;4.57;;
31406;SDS011;18043;52.438;4.836;2022-08-03T02:49:35;19.65;;;4.60;;
31406;SDS011;18043;52.438;4.836;2022-08-03T02:52:11;21.00;;;3.88;;
31406;SDS011;18043;52.438;4.836;2022-08-03T02:54:44;17.60;;;4.35;;
31406;SDS011;18043;52.438;4.836;2022-08-03T02:57:18;16.75;;;4.10;;
31406;SDS011;18043;52.438;4.836;2022-08-03T02:59:51;20.17;;;4.00;;
31406;SDS011;18043;52.438;4.836;2022-08-03T03:02:25;16.80;;;3.65;;
31406;SDS011;18043;52.438;4.836;2022-08-03T03:05:01;15.67;;;3.17;;
31406;SDS011;18043;52.438;4.836;2022-08-03T03:07:34;17.80;;;4.00;;
31406;SDS011;18043;52.438;4.836;2022-08-03T03:10:07;21.40;;;5.15;;
31406;SDS011;18043;52.438;4.836;2022-08-03T03:12:40;23.10;;;5.20;;
31406;SDS011;18043;52.438;4.836;2022-08-03T03:15:15;18.05;;;4.47;;
31406;SDS011;18043;52.438;4.836;2022-08-03T03:17:48;21.98;;;4.80;;
31406;SDS011;18043;52.438;4.836;2022-08-03T03:20:24;17.95;;;4.10;;
31406;SDS011;18043;52.438;4.836;2022-08-03T03:22:57;20.90;;;3.90;;
31406;SDS011;18043;52.438;4.836;2022-08-03T03:25:30;23.52;;;4.45;;
31406;SDS011;18043;52.438;4.836;2022-08-03T03:28:03;24.85;;;4.70;;
31406;SDS011;18043;52.438;4.836;2022-08-03T03:30:36;14.50;;;3.83;;
31406;SDS011;18043;52.438;4.836;2022-08-03T03:33:09;20.00;;;4.20;;
31406;SDS011;18043;52.438;4.836;2022-08-03T03:35:43;21.05;;;3.83;;
31406;SDS011;18043;52.438;4.836;2022-08-03T03:38:16;17.98;;;5.13;;
31406;SDS011;18043;52.438;4.836;2022-08-03T03:40:49;19.88;;;4.82;;
31406;SDS011;18043;52.438;4.836;2022-08-03T03:43:22;19.75;;;4.40;;
31406;SDS011;18043;52.438;4.836;2022-08-03T03:45:55;16.58;;;3.70;;
31406;SDS011;18043;52.438;4.836;2022-08-03T03:48:28;23.38;;;5.22;;
31406;SDS011;18043;52.438;4.836;2022-08-03T03:51:02;20.15;;;4.70;;
31406;SDS011;18043;52.438;4.836;2022-08-03T03:53:34;26.77;;;5.28;;
31406;SDS011;18043;52.438;4.836;2022-08-03T03:56:07;16.58;;;4.05;;
31406;SDS011;18043;52.438;4.836;2022-08-03T03:58:40;16.40;;;4.35;;
31406;SDS011;18043;52.438;4.836;2022-08-03T04:01:12;17.88;;;4.80;;
31406;SDS011;18043;52.438;4.836;2022-08-03T04:03:44;16.48;;;4.40;;
31406;SDS011;18043;52.438;4.836;2022-08-03T04:06:18;15.73;;;3.55;;
31406;SDS011;18043;52.438;4.836;2022-08-03T04:09:08;16.65;;;3.83;;
31406;SDS011;18043;52.438;4.836;2022-08-03T04:11:59;19.87;;;4.83;;
31406;SDS011;18043;52.438;4.836;2022-08-03T04:14:33;22.00;;;5.18;;
31406;SDS011;18043;52.438;4.836;2022-08-03T04:17:07;20.57;;;5.50;;
31406;SDS011;18043;52.438;4.836;2022-08-03T04:19:44;20.92;;;5.40;;
31406;SDS011;18043;52.438;4.836;2022-08-03T04:22:23;16.63;;;4.60;;
31406;SDS011;18043;52.438;4.836;2022-08-03T04:25:02;23.75;;;5.20;;
31406;SDS011;18043;52.438;4.836;2022-08-03T04:27:39;18.92;;;4.93;;
31406;SDS011;18043;52.438;4.836;2022-08-03T04:30:12;16.17;;;5.38;;
31406;SDS011;18043;52.438;4.836;2022-08-03T04:32:46;20.58;;;4.80;;
31406;SDS011;18043;52.438;4.836;2022-08-03T04:35:20;19.38;;;4.88;;
31406;SDS011;18043;52.438;4.836;2022-08-03T04:37:57;17.63;;;5.57;;
31406;SDS011;18043;52.438;4.836;2022-08-03T04:40:33;17.40;;;5.05;;
31406;SDS011;18043;52.438;4.836;2022-08-03T04:43:07;22.73;;;5.17;;
31406;SDS011;18043;52.438;4.836;2022-08-03T04:45:40;17.90;;;5.07;;
31406;SDS011;18043;52.438;4.836;2022-08-03T04:48:13;20.38;;;5.80;;
31406;SDS011;18043;52.438;4.836;2022-08-03T04:50:46;26.47;;;5.73;;
31406;SDS011;18043;52.438;4.836;2022-08-03T04:53:20;18.77;;;5.93;;
31406;SDS011;18043;52.438;4.836;2022-08-03T04:55:53;17.40;;;4.15;;
31406;SDS011;18043;52.438;4.836;2022-08-03T04:58:25;17.98;;;4.75;;
31406;SDS011;18043;52.438;4.836;2022-08-03T05:00:57;22.48;;;5.28;;
31406;SDS011;18043;52.438;4.836;2022-08-03T05:03:29;16.25;;;5.18;;
31406;SDS011;18043;52.438;4.836;2022-08-03T05:06:02;15.75;;;6.38;;
31406;SDS011;18043;52.438;4.836;2022-08-03T05:08:36;17.75;;;5.72;;
31406;SDS011;18043;52.438;4.836;2022-08-03T05:11:08;16.95;;;6.07;;
31406;SDS011;18043;52.438;4.836;2022-08-03T05:13:41;23.50;;;6.57;;
31406;SDS011;18043;52.438;4.836;2022-08-03T05:16:14;22.33;;;5.82;;
31406;SDS011;18043;52.438;4.836;2022-08-03T05:18:46;21.60;;;5.80;;
31406;SDS011;18043;52.438;4.836;2022-08-03T05:21:19;17.48;;;5.00;;
31406;SDS011;18043;52.438;4.836;2022-08-03T05:23:52;22.40;;;6.00;;
31406;SDS011;18043;52.438;4.836;2022-08-03T05:26:24;24.02;;;6.35;;
31406;SDS011;18043;52.438;4.836;2022-08-03T05:28:57;27.83;;;6.30;;
31406;SDS011;18043;52.438;4.836;2022-08-03T05:31:29;21.87;;;6.43;;
31406;SDS011;18043;52.438;4.836;2022-08-03T05:34:01;22.15;;;5.32;;
31406;SDS011;18043;52.438;4.836;2022-08-03T05:36:34;20.55;;;5.45;;
31406;SDS011;18043;52.438;4.836;2022-08-03T05:39:07;20.83;;;5.13;;
31406;SDS011;18043;52.438;4.836;2022-08-03T05:41:40;21.40;;;4.97;;
31406;SDS011;18043;52.438;4.836;2022-08-03T05:44:12;19.27;;;4.57;;
31406;SDS011;18043;52.438;4.836;2022-08-03T05:46:44;24.40;;;5.82;;
31406;SDS011;18043;52.438;4.836;2022-08-03T05:49:16;14.48;;;4.82;;
31406;SDS011;18043;52.438;4.836;2022-08-03T05:51:49;15.85;;;4.78;;
31406;SDS011;18043;52.438;4.836;2022-08-03T05:54:23;15.55;;;4.38;;
31406;SDS011;18043;52.438;4.836;2022-08-03T05:56:55;21.52;;;4.10;;
31406;SDS011;18043;52.438;4.836;2022-08-03T05:59:27;19.85;;;4.45;;
31406;SDS011;18043;52.438;4.836;2022-08-03T06:01:59;26.05;;;5.40;;
31406;SDS011;18043;52.438;4.836;2022-08-03T06:04:32;24.90;;;4.10;;
31406;SDS011;18043;52.438;4.836;2022-08-03T06:07:04;20.67;;;4.30;;
31406;SDS011;18043;52.438;4.836;2022-08-03T06:09:37;14.98;;;4.05;;
31406;SDS011;18043;52.438;4.836;2022-08-03T06:12:10;23.60;;;4.20;;
31406;SDS011;18043;52.438;4.836;2022-08-03T06:14:43;22.45;;;4.20;;
31406;SDS011;18043;52.438;4.836;2022-08-03T06:17:15;23.23;;;4.55;;
31406;SDS011;18043;52.438;4.836;2022-08-03T06:19:47;14.50;;;4.68;;
31406;SDS011;18043;52.438;4.836;2022-08-03T06:22:22;18.60;;;4.40;;
31406;SDS011;18043;52.438;4.836;2022-08-03T06:24:56;21.25;;;4.82;;
31406;SDS011;18043;52.438;4.836;2022-08-03T06:27:28;20.77;;;4.43;;
31406;SDS011;18043;52.438;4.836;2022-08-03T06:30:00;19.13;;;4.57;;
31406;SDS011;18043;52.438;4.836;2022-08-03T06:32:33;25.30;;;5.37;;
31406;SDS011;18043;52.438;4.836;2022-08-03T06:35:06;21.40;;;4.32;;
31406;SDS011;18043;52.438;4.836;2022-08-03T06:37:43;25.85;;;5.57;;
31406;SDS011;18043;52.438;4.836;2022-08-03T06:40:18;14.90;;;4.43;;
31406;SDS011;18043;52.438;4.836;2022-08-03T06:42:58;21.05;;;5.10;;
31406;SDS011;18043;52.438;4.836;2022-08-03T06:45:33;23.42;;;5.28;;
31406;SDS011;18043;52.438;4.836;2022-08-03T06:48:06;20.43;;;5.10;;
31406;SDS011;18043;52.438;4.836;2022-08-03T06:50:40;22.83;;;4.80;;
31406;SDS011;18043;52.438;4.836;2022-08-03T06:53:13;20.10;;;4.83;;
31406;SDS011;18043;52.438;4.836;2022-08-03T06:55:47;25.63;;;4.90;;
31406;SDS011;18043;52.438;4.836;2022-08-03T06:58:19;16.95;;;4.85;;
31406;SDS011;18043;52.438;4.836;2022-08-03T07:00:52;18.40;;;4.28;;
31406;SDS011;18043;52.438;4.836;2022-08-03T07:03:24;21.17;;;4.27;;
31406;SDS011;18043;52.438;4.836;2022-08-03T07:05:56;13.88;;;3.97;;
31406;SDS011;18043;52.438;4.836;2022-08-03T07:08:28;17.98;;;4.43;;
31406;SDS011;18043;52.438;4.836;2022-08-03T07:11:02;21.25;;;5.15;;
31406;SDS011;18043;52.438;4.836;2022-08-03T07:13:34;31.25;;;5.28;;
31406;SDS011;18043;52.438;4.836;2022-08-03T07:16:07;20.42;;;4.88;;
31406;SDS011;18043;52.438;4.836;2022-08-03T07:18:39;30.40;;;4.70;;
31406;SDS011;18043;52.438;4.836;2022-08-03T07:21:11;28.92;;;6.28;;
31406;SDS011;18043;52.438;4.836;2022-08-03T07:23:45;23.38;;;4.65;;
31406;SDS011;18043;52.438;4.836;2022-08-03T07:26:19;23.48;;;4.50;;
31406;SDS011;18043;52.438;4.836;2022-08-03T07:28:51;20.45;;;3.83;;
31406;SDS011;18043;52.438;4.836;2022-08-03T07:31:24;20.98;;;4.07;;
31406;SDS011;18043;52.438;4.836;2022-08-03T07:33:56;21.63;;;4.43;;
31406;SDS011;18043;52.438;4.836;2022-08-03T07:36:29;21.23;;;4.60;;
31406;SDS011;18043;52.438;4.836;2022-08-03T07:39:02;19.95;;;4.15;;
31406;SDS011;18043;52.438;4.836;2022-08-03T07:41:36;21.73;;;4.18;;
31406;SDS011;18043;52.438;4.836;2022-08-03T07:44:08;21.70;;;4.57;;
31406;SDS011;18043;52.438;4.836;2022-08-03T07:46:41;23.13;;;4.82;;
31406;SDS011;18043;52.438;4.836;2022-08-03T07:49:13;23.67;;;4.13;;
31406;SDS011;18043;52.438;4.836;2022-08-03T07:51:45;26.90;;;4.10;;
31406;SDS011;18043;52.438;4.836;2022-08-03T07:54:38;20.05;;;4.55;;
31406;SDS011;18043;52.438;4.836;2022-08-03T07:57:11;24.42;;;4.30;;
31406;SDS011;18043;52.438;4.836;2022-08-03T07:59:44;24.10;;;4.87;;
31406;SDS011;18043;52.438;4.836;2022-08-03T08:02:17;21.25;;;3.78;;
31406;SDS011;18043;52.438;4.836;2022-08-03T08:04:49;22.98;;;4.40;;
31406;SDS011;18043;52.438;4.836;2022-08-03T08:07:22;16.17;;;3.75;;
31406;SDS011;18043;52.438;4.836;2022-08-03T08:09:55;20.80;;;4.07;;
31406;SDS011;18043;52.438;4.836;2022-08-03T08:12:29;22.17;;;3.80;;
31406;SDS011;18043;52.438;4.836;2022-08-03T08:15:01;30.00;;;4.13;;
31406;SDS011;18043;52.438;4.836;2022-08-03T08:17:41;18.25;;;3.70;;
31406;SDS011;18043;52.438;4.836;2022-08-03T08:20:16;19.15;;;3.90;;
31406;SDS011;18043;52.438;4.836;2022-08-03T08:22:50;18.58;;;3.83;;
31406;SDS011;18043;52.438;4.836;2022-08-03T08:25:22;18.25;;;4.05;;
31406;SDS011;18043;52.438;4.836;2022-08-03T08:27:57;18.67;;;4.22;;
31406;SDS011;18043;52.438;4.836;2022-08-03T08:30:31;25.80;;;4.63;;
31406;SDS011;18043;52.438;4.836;2022-08-03T08:33:04;18.67;;;4.05;;
31406;SDS011;18043;52.438;4.836;2022-08-03T08:35:36;19.08;;;4.18;;
31406;SDS011;18043;52.438;4.836;2022-08-03T08:38:09;21.42;;;4.00;;
31406;SDS011;18043;52.438;4.836;2022-08-03T08:40:41;21.65;;;4.35;;
31406;SDS011;18043;52.438;4.836;2022-08-03T08:43:15;19.90;;;3.90;;
31406;SDS011;18043;52.438;4.836;2022-08-03T08:45:48;22.13;;;5.03;;
31406;SDS011;18043;52.438;4.836;2022-08-03T08:48:21;20.47;;;4.80;;
31406;SDS011;18043;52.438;4.836;2022-08-03T08:50:57;27.63;;;4.45;;
31406;SDS011;18043;52.438;4.836;2022-08-03T08:53:30;16.27;;;3.70;;
31406;SDS011;18043;52.438;4.836;2022-08-03T08:56:07;24.60;;;5.88;;
31406;SDS011;18043;52.438;4.836;2022-08-03T08:58:46;20.40;;;4.53;;
31406;SDS011;18043;52.438;4.836;2022-08-03T09:01:21;20.87;;;5.07;;
31406;SDS011;18043;52.438;4.836;2022-08-03T09:03:53;20.17;;;4.50;;
31406;SDS011;18043;52.438;4.836;2022-08-03T09:06:25;22.27;;;5.03;;
31406;SDS011;18043;52.438;4.836;2022-08-03T09:08:58;23.25;;;4.70;;
31406;SDS011;18043;52.438;4.836;2022-08-03T09:11:30;19.52;;;3.78;;
31406;SDS011;18043;52.438;4.836;2022-08-03T09:14:04;18.90;;;4.00;;
31406;SDS011;18043;52.438;4.836;2022-08-03T09:16:36;21.02;;;4.00;;
31406;SDS011;18043;52.438;4.836;2022-08-03T09:19:25;19.80;;;3.97;;
31406;SDS011;18043;52.438;4.836;2022-08-03T09:22:08;16.17;;;4.47;;
31406;SDS011;18043;52.438;4.836;2022-08-03T09:24:52;16.20;;;4.40;;
31406;SDS011;18043;52.438;4.836;2022-08-03T09:27:26;21.45;;;3.97;;
31406;SDS011;18043;52.438;4.836;2022-08-03T09:30:00;20.55;;;3.80;;
31406;SDS011;18043;52.438;4.836;2022-08-03T09:32:42;23.77;;;4.37;;
31406;SDS011;18043;52.438;4.836;2022-08-03T09:35:15;21.50;;;3.35;;
31406;SDS011;18043;52.438;4.836;2022-08-03T09:38:07;24.50;;;4.35;;
31406;SDS011;18043;52.438;4.836;2022-08-03T09:40:41;22.97;;;4.30;;
31406;SDS011;18043;52.438;4.836;2022-08-03T09:43:15;29.55;;;4.43;;
31406;SDS011;18043;52.438;4.836;2022-08-03T09:45:49;19.42;;;3.40;;
31406;SDS011;18043;52.438;4.836;2022-08-03T09:48:32;14.80;;;3.70;;
31406;SDS011;18043;52.438;4.836;2022-08-03T09:51:05;19.03;;;3.80;;
31406;SDS011;18043;52.438;4.836;2022-08-03T09:53:41;18.20;;;4.10;;
31406;SDS011;18043;52.438;4.836;2022-08-03T09:56:14;27.33;;;4.10;;
31406;SDS011;18043;52.438;4.836;2022-08-03T09:58:46;19.55;;;3.55;;
31406;SDS011;18043;52.438;4.836;2022-08-03T10:01:21;20.77;;;3.83;;
31406;SDS011;18043;52.438;4.836;2022-08-03T10:04:03;20.75;;;4.10;;
31406;SDS011;18043;52.438;4.836;2022-08-03T10:06:36;20.50;;;3.72;;
31406;SDS011;18043;52.438;4.836;2022-08-03T10:09:09;18.67;;;3.35;;
31406;SDS011;18043;52.438;4.836;2022-08-03T10:11:43;25.85;;;4.85;;
31406;SDS011;18043;52.438;4.836;2022-08-03T10:14:17;17.88;;;3.80;;
31406;SDS011;18043;52.438;4.836;2022-08-03T10:16:52;22.73;;;4.22;;
31406;SDS011;18043;52.438;4.836;2022-08-03T10:19:25;15.33;;;3.93;;
31406;SDS011;18043;52.438;4.836;2022-08-03T10:22:02;25.85;;;3.85;;
31406;SDS011;18043;52.438;4.836;2022-08-03T10:24:43;17.67;;;4.00;;
31406;SDS011;18043;52.438;4.836;2022-08-03T10:27:22;22.35;;;4.43;;
31406;SDS011;18043;52.438;4.836;2022-08-03T10:29:58;19.15;;;4.03;;
31406;SDS011;18043;52.438;4.836;2022-08-03T10:32:36;18.33;;;3.40;;
31406;SDS011;18043;52.438;4.836;2022-08-03T10:35:13;25.17;;;4.45;;
31406;SDS011;18043;52.438;4.836;2022-08-03T10:37:51;18.13;;;4.30;;
31406;SDS011;18043;52.438;4.836;2022-08-03T10:40:26;17.88;;;3.78;;
31406;SDS011;18043;52.438;4.836;2022-08-03T10:43:02;19.33;;;4.10;;
31406;SDS011;18043;52.438;4.836;2022-08-03T10:45:39;18.30;;;3.30;;
31406;SDS011;18043;52.438;4.836;2022-08-03T10:48:14;19.07;;;3.57;;
31406;SDS011;18043;52.438;4.836;2022-08-03T10:50:47;21.35;;;3.83;;
31406;SDS011;18043;52.438;4.836;2022-08-03T10:53:33;17.30;;;4.03;;
31406;SDS011;18043;52.438;4.836;2022-08-03T10:56:06;19.30;;;3.17;;
31406;SDS011;18043;52.438;4.836;2022-08-03T11:05:48;23.52;;;4.40;;
31406;SDS011;18043;52.438;4.836;2022-08-03T11:08:26;22.25;;;3.75;;
31406;SDS011;18043;52.438;4.836;2022-08-03T11:11:01;18.48;;;3.55;;
31406;SDS011;18043;52.438;4.836;2022-08-03T11:13:58;16.10;;;3.42;;
31406;SDS011;18043;52.438;4.836;2022-08-03T11:16:34;16.00;;;3.50;;
31406;SDS011;18043;52.438;4.836;2022-08-03T11:19:10;16.00;;;3.25;;
31406;SDS011;18043;52.438;4.836;2022-08-03T11:21:53;22.80;;;3.38;;
31406;SDS011;18043;52.438;4.836;2022-08-03T11:27:31;22.02;;;3.70;;
31406;SDS011;18043;52.438;4.836;2022-08-03T11:30:05;19.15;;;3.95;;
31406;SDS011;18043;52.438;4.836;2022-08-03T11:32:58;20.80;;;4.13;;
31406;SDS011;18043;52.438;4.836;2022-08-03T11:35:33;22.77;;;3.30;;
31406;SDS011;18043;52.438;4.836;2022-08-03T11:38:09;21.95;;;4.22;;
31406;SDS011;18043;52.438;4.836;2022-08-03T11:40:43;18.75;;;4.00;;
31406;SDS011;18043;52.438;4.836;2022-08-03T11:46:15;21.30;;;3.80;;
31406;SDS011;18043;52.438;4.836;2022-08-03T11:48:49;14.73;;;3.30;;
31406;SDS011;18043;52.438;4.836;2022-08-03T11:51:23;22.97;;;4.20;;
31406;SDS011;18043;52.438;4.836;2022-08-03T11:53:58;22.02;;;4.10;;
31406;SDS011;18043;52.438;4.836;2022-08-03T11:56:42;15.85;;;3.28;;
31406;SDS011;18043;52.438;4.836;2022-08-03T11:59:16;18.65;;;3.88;;
31406;SDS011;18043;52.438;4.836;2022-08-03T12:01:48;25.42;;;3.78;;
31406;SDS011;18043;52.438;4.836;2022-08-03T12:04:21;12.35;;;3.00;;
31406;SDS011;18043;52.438;4.836;2022-08-03T12:06:58;14.43;;;2.80;;
31406;SDS011;18043;52.438;4.836;2022-08-03T12:09:31;16.90;;;3.50;;
31406;SDS011;18043;52.438;4.836;2022-08-03T12:12:05;19.48;;;3.72;;
31406;SDS011;18043;52.438;4.836;2022-08-03T12:14:37;19.02;;;3.47;;
31406;SDS011;18043;52.438;4.836;2022-08-03T12:17:10;17.33;;;3.00;;
31406;SDS011;18043;52.438;4.836;2022-08-03T12:19:42;18.65;;;3.50;;
31406;SDS011;18043;52.438;4.836;2022-08-03T12:22:17;17.77;;;3.22;;
31406;SDS011;18043;52.438;4.836;2022-08-03T12:25:02;15.50;;;3.73;;
31406;SDS011;18043;52.438;4.836;2022-08-03T12:27:35;14.52;;;2.90;;
31406;SDS011;18043;52.438;4.836;2022-08-03T12:30:08;17.25;;;3.28;;
31406;SDS011;18043;52.438;4.836;2022-08-03T12:32:42;17.67;;;3.47;;
31406;SDS011;18043;52.438;4.836;2022-08-03T12:35:21;18.95;;;3.35;;
31406;SDS011;18043;52.438;4.836;2022-08-03T12:37:55;14.27;;;3.05;;
31406;SDS011;18043;52.438;4.836;2022-08-03T12:40:28;17.20;;;3.20;;
31406;SDS011;18043;52.438;4.836;2022-08-03T12:43:00;15.23;;;3.40;;
31406;SDS011;18043;52.438;4.836;2022-08-03T12:45:40;17.30;;;3.13;;
31406;SDS011;18043;52.438;4.836;2022-08-03T12:48:13;16.17;;;2.72;;
31406;SDS011;18043;52.438;4.836;2022-08-03T12:50:45;18.45;;;3.80;;
31406;SDS011;18043;52.438;4.836;2022-08-03T12:53:27;18.27;;;3.55;;
31406;SDS011;18043;52.438;4.836;2022-08-03T12:56:00;12.48;;;3.42;;
31406;SDS011;18043;52.438;4.836;2022-08-03T12:58:34;14.57;;;3.08;;
31406;SDS011;18043;52.438;4.836;2022-08-03T13:01:06;20.58;;;3.50;;
31406;SDS011;18043;52.438;4.836;2022-08-03T13:03:39;25.27;;;3.53;;
31406;SDS011;18043;52.438;4.836;2022-08-03T13:06:13;12.55;;;2.88;;
31406;SDS011;18043;52.438;4.836;2022-08-03T13:08:49;23.95;;;3.28;;
31406;SDS011;18043;52.438;4.836;2022-08-03T13:11:33;18.58;;;4.13;;
31406;SDS011;18043;52.438;4.836;2022-08-03T13:14:06;13.02;;;3.15;;
31406;SDS011;18043;52.438;4.836;2022-08-03T13:16:38;17.00;;;3.33;;
31406;SDS011;18043;52.438;4.836;2022-08-03T13:19:10;18.42;;;4.10;;
31406;SDS011;18043;52.438;4.836;2022-08-03T13:21:43;17.23;;;3.53;;
31406;SDS011;18043;52.438;4.836;2022-08-03T13:24:19;15.30;;;3.70;;
31406;SDS011;18043;52.438;4.836;2022-08-03T13:26:51;13.13;;;2.90;;
31406;SDS011;18043;52.438;4.836;2022-08-03T13:29:23;16.63;;;3.55;;
31406;SDS011;18043;52.438;4.836;2022-08-03T13:31:56;17.83;;;2.92;;
31406;SDS011;18043;52.438;4.836;2022-08-03T13:34:28;21.50;;;3.33;;
31406;SDS011;18043;52.438;4.836;2022-08-03T13:37:00;14.60;;;3.30;;
31406;SDS011;18043;52.438;4.836;2022-08-03T13:39:34;16.65;;;3.40;;
31406;SDS011;18043;52.438;4.836;2022-08-03T13:42:07;16.50;;;2.67;;
31406;SDS011;18043;52.438;4.836;2022-08-03T13:44:39;12.55;;;3.22;;
31406;SDS011;18043;52.438;4.836;2022-08-03T13:47:12;14.48;;;3.00;;
31406;SDS011;18043;52.438;4.836;2022-08-03T13:49:44;16.88;;;3.33;;
31406;SDS011;18043;52.438;4.836;2022-08-03T13:52:16;20.83;;;4.25;;
31406;SDS011;18043;52.438;4.836;2022-08-03T13:54:50;11.10;;;2.22;;
31406;SDS011;18043;52.438;4.836;2022-08-03T13:57:22;17.27;;;3.55;;
31406;SDS011;18043;52.438;4.836;2022-08-03T13:59:54;14.43;;;2.97;;
31406;SDS011;18043;52.438;4.836;2022-08-03T14:02:27;18.23;;;3.10;;
31406;SDS011;18043;52.438;4.836;2022-08-03T14:04:59;10.07;;;2.60;;
31406;SDS011;18043;52.438;4.836;2022-08-03T14:07:31;8.55;;;2.58;;
31406;SDS011;18043;52.438;4.836;2022-08-03T14:10:06;12.00;;;2.67;;
31406;SDS011;18043;52.438;4.836;2022-08-03T14:12:39;15.07;;;3.05;;
31406;SDS011;18043;52.438;4.836;2022-08-03T14:15:11;9.55;;;2.67;;
31406;SDS011;18043;52.438;4.836;2022-08-03T14:17:44;12.75;;;2.83;;
31406;SDS011;18043;52.438;4.836;2022-08-03T14:20:18;16.90;;;2.63;;
31406;SDS011;18043;52.438;4.836;2022-08-03T14:22:50;19.30;;;3.90;;
31406;SDS011;18043;52.438;4.836;2022-08-03T14:25:23;18.93;;;3.03;;
31406;SDS011;18043;52.438;4.836;2022-08-03T14:27:56;10.57;;;2.67;;
31406;SDS011;18043;52.438;4.836;2022-08-03T14:30:28;15.47;;;2.97;;
31406;SDS011;18043;52.438;4.836;2022-08-03T14:33:01;12.10;;;2.07;;
31406;SDS011;18043;52.438;4.836;2022-08-03T14:35:33;13.60;;;2.45;;
31406;SDS011;18043;52.438;4.836;2022-08-03T14:38:06;16.77;;;2.20;;
31406;SDS011;18043;52.438;4.836;2022-08-03T14:40:40;13.80;;;3.03;;
31406;SDS011;18043;52.438;4.836;2022-08-03T14:43:12;20.23;;;2.65;;
31406;SDS011;18043;52.438;4.836;2022-08-03T14:45:46;19.38;;;3.25;;
31406;SDS011;18043;52.438;4.836;2022-08-03T14:48:22;12.33;;;2.17;;
31406;SDS011;18043;52.438;4.836;2022-08-03T14:50:56;12.75;;;2.83;;
31406;SDS011;18043;52.438;4.836;2022-08-03T14:53:28;12.80;;;2.45;;
31406;SDS011;18043;52.438;4.836;2022-08-03T14:56:02;8.48;;;2.78;;
31406;SDS011;18043;52.438;4.836;2022-08-03T14:58:35;11.27;;;2.50;;
31406;SDS011;18043;52.438;4.836;2022-08-03T15:01:07;14.35;;;3.47;;
31406;SDS011;18043;52.438;4.836;2022-08-03T15:03:40;12.57;;;2.42;;
31406;SDS011;18043;52.438;4.836;2022-08-03T15:06:13;10.98;;;2.38;;
31406;SDS011;18043;52.438;4.836;2022-08-03T15:08:45;13.73;;;2.37;;
31406;SDS011;18043;52.438;4.836;2022-08-03T15:11:20;13.90;;;2.58;;
31406;SDS011;18043;52.438;4.836;2022-08-03T15:13:52;13.05;;;2.60;;
31406;SDS011;18043;52.438;4.836;2022-08-03T15:16:24;11.80;;;2.63;;
31406;SDS011;18043;52.438;4.836;2022-08-03T15:18:57;9.30;;;2.40;;
31406;SDS011;18043;52.438;4.836;2022-08-03T15:21:29;13.30;;;2.55;;
31406;SDS011;18043;52.438;4.836;2022-08-03T15:24:02;15.07;;;2.78;;
31406;SDS011;18043;52.438;4.836;2022-08-03T15:26:36;13.40;;;2.00;;
31406;SDS011;18043;52.438;4.836;2022-08-03T15:29:08;8.70;;;2.40;;
31406;SDS011;18043;52.438;4.836;2022-08-03T15:31:42;15.10;;;2.50;;